createdAt,value
2022-08-20T00:01:27.888Z,25.3
2022-08-20T00:03:27.847Z,24.1
2022-08-20T00:05:27.853Z,23.7
2022-08-20T00:07:27.857Z,25.6
2022-08-20T00:09:27.873Z,25.8
2022-08-20T00:11:28.935Z,23.6
2022-08-20T00:13:27.877Z,23.7
2022-08-20T00:15:27.884Z,26.5
2022-08-20T00:17:27.889Z,24.7
2022-08-20T00:19:27.903Z,26.1
2022-08-20T00:21:27.902Z,26.3
2022-08-20T00:23:27.906Z,26.6
2022-08-20T00:25:27.904Z,26.3
2022-08-20T00:27:27.911Z,27.6
2022-08-20T00:29:27.934Z,27.7
2022-08-20T00:31:27.930Z,27.3
2022-08-20T00:33:27.920Z,24.4
2022-08-20T00:35:27.927Z,24.5
2022-08-20T00:37:27.925Z,24
2022-08-20T00:39:27.945Z,25.2
2022-08-20T00:41:27.936Z,26.2
2022-08-20T00:43:27.937Z,26.9
2022-08-20T00:45:27.948Z,24.9
2022-08-20T00:47:27.951Z,28.2
2022-08-20T00:49:28.220Z,29.4
2022-08-20T00:51:27.959Z,29.3
2022-08-20T00:53:27.959Z,29.5
2022-08-20T00:55:31.412Z,31.6
2022-08-20T00:57:27.971Z,31.2
2022-08-20T00:59:27.983Z,31.6
2022-08-20T01:01:28.173Z,28.5
2022-08-20T01:03:27.982Z,27.9
2022-08-20T01:05:28.640Z,25.5
2022-08-20T01:07:27.985Z,25.7
2022-08-20T01:09:33.579Z,27.8
2022-08-20T01:11:27.987Z,25.2
2022-08-20T01:13:27.992Z,24.1
2022-08-20T01:15:30.890Z,24.5
2022-08-20T01:17:27.995Z,25.6
2022-08-20T01:19:29.159Z,23.9
2022-08-20T01:21:27.996Z,24.1
2022-08-20T01:23:28.000Z,24.1
2022-08-20T01:25:28.002Z,23.6
2022-08-20T01:27:28.010Z,22.1
2022-08-20T01:29:28.021Z,22.5
2022-08-20T01:31:28.021Z,22.4
2022-08-20T01:33:28.008Z,23.6
2022-08-20T01:35:28.011Z,24.1
2022-08-20T01:37:28.760Z,25
2022-08-20T01:39:28.031Z,23.7
2022-08-20T01:41:28.451Z,24
2022-08-20T01:43:28.161Z,24.6
2022-08-20T01:45:28.024Z,25.7
2022-08-20T01:47:28.031Z,26.8
2022-08-20T01:49:28.043Z,24.3
2022-08-20T01:51:28.049Z,25.7
2022-08-20T01:53:28.060Z,26.3
2022-08-20T01:55:28.064Z,26.5
2022-08-20T01:57:28.075Z,25.9
2022-08-20T01:59:28.096Z,25.7
2022-08-20T02:01:28.178Z,26.3
2022-08-20T02:03:28.106Z,27.2
2022-08-20T02:05:29.957Z,25.1
2022-08-20T02:07:28.130Z,26.2
2022-08-20T02:09:28.187Z,26.3
2022-08-20T02:11:28.160Z,28.6
2022-08-20T02:13:28.167Z,24.6
2022-08-20T02:15:30.949Z,27.3
2022-08-20T02:17:28.167Z,23.8
2022-08-20T02:19:28.209Z,23
2022-08-20T02:21:28.202Z,22.2
2022-08-20T02:23:28.216Z,22.5
2022-08-20T02:25:28.231Z,22.6
2022-08-20T02:27:28.234Z,23
2022-08-20T02:29:28.273Z,24.2
2022-08-20T02:31:30.758Z,23.4
2022-08-20T02:33:28.279Z,23
2022-08-20T02:35:28.296Z,23.9
2022-08-20T02:37:28.301Z,23.6
2022-08-20T02:39:28.315Z,23.6
2022-08-20T02:41:28.311Z,24
2022-08-20T02:43:28.320Z,24
2022-08-20T02:45:28.335Z,25.5
2022-08-20T02:47:28.343Z,23.8
2022-08-20T02:49:28.369Z,26
2022-08-20T02:51:30.219Z,25.4
2022-08-20T02:53:28.378Z,23.5
2022-08-20T02:55:28.533Z,24.1
2022-08-20T02:57:28.396Z,25.1
2022-08-20T02:59:28.418Z,25.6
2022-08-20T03:01:28.478Z,24.3
2022-08-20T03:03:28.432Z,24.5
2022-08-20T03:05:28.447Z,24
2022-08-20T03:07:28.443Z,25.4
2022-08-20T03:09:28.458Z,22.7
2022-08-20T03:11:28.456Z,24.9
2022-08-20T03:13:28.463Z,24.7
2022-08-20T03:15:28.472Z,23.1
2022-08-20T03:17:28.486Z,25.2
2022-08-20T03:19:28.509Z,27.6
2022-08-20T03:21:28.507Z,29.4
2022-08-20T03:23:28.516Z,26.6
2022-08-20T03:25:28.531Z,26.9
2022-08-20T03:27:30.623Z,26.8
2022-08-20T03:29:28.562Z,28
2022-08-20T03:31:28.575Z,29.4
2022-08-20T03:33:28.575Z,30.6
2022-08-20T03:35:28.583Z,26.3
2022-08-20T03:37:28.594Z,26.5
2022-08-20T03:39:28.614Z,28.2
2022-08-20T03:41:28.617Z,28.5
2022-08-20T03:43:28.623Z,27.8
2022-08-20T03:45:28.626Z,27
2022-08-20T03:47:28.629Z,27.2
2022-08-20T03:49:28.651Z,29.5
2022-08-20T03:51:28.662Z,29.1
2022-08-20T03:53:28.637Z,30.3
2022-08-20T03:55:28.645Z,30.9
2022-08-20T03:57:28.642Z,31.5
2022-08-20T03:59:28.662Z,28.5
2022-08-20T04:01:44.210Z,33
2022-08-20T04:03:28.648Z,33.3
2022-08-20T04:05:28.654Z,31.8
2022-08-20T04:07:28.655Z,31.1
2022-08-20T04:09:28.668Z,32.3
2022-08-20T04:11:28.663Z,31.3
2022-08-20T04:13:28.657Z,34.1
2022-08-20T04:15:28.667Z,34.3
2022-08-20T04:17:28.657Z,34.9
2022-08-20T04:19:32.479Z,34.2
2022-08-20T04:21:30.999Z,33.9
2022-08-20T04:23:28.660Z,34
2022-08-20T04:25:28.664Z,30.9
2022-08-20T04:27:28.658Z,31.9
2022-08-20T04:29:31.841Z,32.7
2022-08-20T04:31:28.673Z,32
2022-08-20T04:33:33.676Z,32.6
2022-08-20T04:35:28.665Z,32.4
2022-08-20T04:37:28.667Z,32
2022-08-20T04:39:28.681Z,32.9
2022-08-20T04:41:28.666Z,32.9
2022-08-20T04:43:28.677Z,33.4
2022-08-20T04:45:28.672Z,33.6
2022-08-20T04:47:34.568Z,32.3
2022-08-20T04:49:28.966Z,31.5
2022-08-20T04:51:28.679Z,32.2
2022-08-20T04:53:28.673Z,36.7
2022-08-20T04:55:28.705Z,33.5
2022-08-20T04:57:28.732Z,31.2
2022-08-20T04:59:28.690Z,33.6
2022-08-20T05:01:28.776Z,32.3
2022-08-20T05:03:28.687Z,30.3
2022-08-20T05:05:28.683Z,30.7
2022-08-20T05:07:28.696Z,29.9
2022-08-20T05:09:28.691Z,30.3
2022-08-20T05:11:35.118Z,31.7
2022-08-20T05:13:28.681Z,32.2
2022-08-20T05:15:28.689Z,33.9
2022-08-20T05:17:28.683Z,31.8
2022-08-20T05:19:28.697Z,30.7
2022-08-20T05:21:28.687Z,30.3
2022-08-20T05:23:28.691Z,30
2022-08-20T05:25:28.692Z,30.3
2022-08-20T05:27:28.689Z,28.4
2022-08-20T05:29:28.707Z,29
2022-08-20T05:31:31.116Z,28.9
2022-08-20T05:33:28.692Z,27.8
2022-08-20T05:35:28.690Z,27.6
2022-08-20T05:37:28.694Z,27.8
2022-08-20T05:39:28.707Z,27.6
2022-08-20T05:41:29.976Z,26.2
2022-08-20T05:43:28.694Z,27.2
2022-08-20T05:45:28.696Z,25.7
2022-08-20T05:47:28.702Z,27.4
2022-08-20T05:49:28.712Z,24.7
2022-08-20T05:51:28.705Z,27.3
2022-08-20T05:53:28.698Z,26.8
2022-08-20T05:55:28.700Z,27.3
2022-08-20T05:57:28.703Z,24.7
2022-08-20T05:59:28.724Z,25.1
2022-08-20T06:01:28.853Z,24.6
2022-08-20T06:03:28.713Z,22
2022-08-20T06:05:28.717Z,22.4
2022-08-20T06:07:28.718Z,22.3
2022-08-20T06:09:32.094Z,20.9
2022-08-20T06:11:28.718Z,20.5
2022-08-20T06:13:28.724Z,20.4
2022-08-20T06:15:28.723Z,24.8
2022-08-20T06:17:28.723Z,18.8
2022-08-20T06:19:32.177Z,16.7
2022-08-20T06:21:28.729Z,16
2022-08-20T06:23:40.160Z,15.6
2022-08-20T06:25:28.726Z,15.5
2022-08-20T06:27:28.730Z,15.7
2022-08-20T06:29:28.733Z,15.3
2022-08-20T06:31:28.743Z,13.1
2022-08-20T06:33:28.735Z,14
2022-08-20T06:35:28.732Z,16
2022-08-20T06:37:31.257Z,16.8
2022-08-20T06:39:28.740Z,13.5
2022-08-20T06:41:35.893Z,15.4
2022-08-20T06:43:28.740Z,14.3
2022-08-20T06:45:28.743Z,14.3
2022-08-20T06:47:28.753Z,13.9
2022-08-20T06:49:28.744Z,14.9
2022-08-20T06:51:28.741Z,14.5
2022-08-20T06:53:28.743Z,13.5
2022-08-20T06:55:28.767Z,13.2
2022-08-20T06:57:28.745Z,14.8
2022-08-20T06:59:28.752Z,11.7
2022-08-20T07:01:28.830Z,12.7
2022-08-20T07:03:28.745Z,12.8
2022-08-20T07:05:28.750Z,12.7
2022-08-20T07:07:28.763Z,12.7
2022-08-20T07:09:28.757Z,13.3
2022-08-20T07:11:28.992Z,14.5
2022-08-20T07:13:28.756Z,13
2022-08-20T07:15:28.759Z,14.5
2022-08-20T07:17:28.776Z,14.6
2022-08-20T07:19:28.762Z,14.1
2022-08-20T07:21:28.769Z,17.1
2022-08-20T07:23:28.768Z,13.5
2022-08-20T07:25:28.800Z,14.6
2022-08-20T07:27:28.772Z,14.3
2022-08-20T07:29:28.763Z,15.8
2022-08-20T07:31:28.977Z,13.5
2022-08-20T07:33:28.777Z,15.7
2022-08-20T07:35:28.779Z,17.3
2022-08-20T07:37:28.797Z,16.1
2022-08-20T07:39:29.990Z,15.9
2022-08-20T07:41:28.797Z,15.8
2022-08-20T07:43:28.813Z,14
2022-08-20T07:45:28.813Z,14.3
2022-08-20T07:47:28.803Z,14.4
2022-08-20T07:49:28.814Z,13.4
2022-08-20T07:51:28.796Z,14
2022-08-20T07:53:32.370Z,13.5
2022-08-20T07:55:28.791Z,14.4
2022-08-20T07:57:28.785Z,13.6
2022-08-20T07:59:28.788Z,12.4
2022-08-20T08:01:28.892Z,13.6
2022-08-20T08:03:37.586Z,14.5
2022-08-20T08:05:28.795Z,12.5
2022-08-20T08:07:28.798Z,13
2022-08-20T08:09:28.797Z,13.2
2022-08-20T08:11:28.809Z,14.1
2022-08-20T08:13:28.802Z,14
2022-08-20T08:15:28.805Z,13.3
2022-08-20T08:17:28.807Z,12.1
2022-08-20T08:19:28.830Z,12.3
2022-08-20T08:21:28.810Z,12.2
2022-08-20T08:23:31.376Z,15.8
2022-08-20T08:25:28.810Z,10.8
2022-08-20T08:27:28.810Z,11.3
2022-08-20T08:29:28.816Z,10
2022-08-20T08:31:28.830Z,11.3
2022-08-20T08:33:28.825Z,11.9
2022-08-20T08:35:28.815Z,12.7
2022-08-20T08:37:30.743Z,12.5
2022-08-20T08:39:30.282Z,10.7
2022-08-20T08:41:28.835Z,11.4
2022-08-20T08:43:31.196Z,10.1
2022-08-20T08:45:28.842Z,10.9
2022-08-20T08:47:28.833Z,11
2022-08-20T08:49:33.976Z,11.3
2022-08-20T08:51:28.844Z,11.6
2022-08-20T08:53:28.847Z,13.8
2022-08-20T08:55:28.850Z,11.6
2022-08-20T08:57:28.859Z,10.4
2022-08-20T08:59:28.864Z,11.4
2022-08-20T09:01:53.629Z,11.2
2022-08-20T09:03:28.863Z,12.9
2022-08-20T09:05:28.864Z,12
2022-08-20T09:07:28.868Z,12.8
2022-08-20T09:09:28.869Z,14
2022-08-20T09:11:28.875Z,14.6
2022-08-20T09:13:28.871Z,13.6
2022-08-20T09:15:28.883Z,12.7
2022-08-20T09:17:28.887Z,11.8
2022-08-20T09:19:28.885Z,13.4
2022-08-20T09:21:28.886Z,13.4
2022-08-20T09:23:28.895Z,11.9
2022-08-20T09:25:28.891Z,13.7
2022-08-20T09:27:28.896Z,11.5
2022-08-20T09:29:28.896Z,11.8
2022-08-20T09:31:28.912Z,11.7
2022-08-20T09:33:28.895Z,11.3
2022-08-20T09:35:28.900Z,12.7
2022-08-20T09:37:31.438Z,12.5
2022-08-20T09:39:28.903Z,12.1
2022-08-20T09:41:28.900Z,12.9
2022-08-20T09:43:28.907Z,12.2
2022-08-20T09:45:28.920Z,13.1
2022-08-20T09:47:28.911Z,12.3
2022-08-20T09:49:28.912Z,13
2022-08-20T09:51:28.918Z,11.5
2022-08-20T09:53:28.916Z,11.4
2022-08-20T09:55:28.922Z,13.6
2022-08-20T09:57:28.919Z,10.5
2022-08-20T09:59:28.921Z,11.5
2022-08-20T10:01:28.997Z,10.6
2022-08-20T10:03:28.929Z,12
2022-08-20T10:05:28.926Z,12.4
2022-08-20T10:07:28.938Z,11.5
2022-08-20T10:09:28.938Z,11.5
2022-08-20T10:11:28.939Z,11.4
2022-08-20T10:13:28.946Z,12.5
2022-08-20T10:15:28.949Z,13.1
2022-08-20T10:17:28.947Z,11.2
2022-08-20T10:19:28.962Z,10.4
2022-08-20T10:21:28.957Z,9.2
2022-08-20T10:23:28.972Z,8.1
2022-08-20T10:25:28.970Z,8.4
2022-08-20T10:27:28.975Z,8.3
2022-08-20T10:29:28.981Z,9.6
2022-08-20T10:31:28.984Z,10.6
2022-08-20T10:33:28.985Z,9.3
2022-08-20T10:35:28.978Z,8
2022-08-20T10:37:28.986Z,8.3
2022-08-20T10:39:28.988Z,7.2
2022-08-20T10:41:28.983Z,7.4
2022-08-20T10:43:28.996Z,7.8
2022-08-20T10:45:28.998Z,7.3
2022-08-20T10:47:28.994Z,8
2022-08-20T10:49:29.003Z,8
2022-08-20T10:51:32.447Z,7.3
2022-08-20T10:53:29.011Z,8.9
2022-08-20T10:55:29.013Z,10.5
2022-08-20T10:57:29.007Z,6.3
2022-08-20T10:59:29.010Z,6.6
2022-08-20T11:01:31.704Z,7.4
2022-08-20T11:03:29.019Z,8
2022-08-20T11:05:29.022Z,6.1
2022-08-20T11:07:49.720Z,7.8
2022-08-20T11:09:29.029Z,6.9
2022-08-20T11:11:29.031Z,7.2
2022-08-20T11:13:29.033Z,7.5
2022-08-20T11:15:29.046Z,7.1
2022-08-20T11:17:29.047Z,7
2022-08-20T11:19:29.044Z,7.1
2022-08-20T11:21:29.046Z,7.4
2022-08-20T11:23:29.055Z,5.7
2022-08-20T11:25:29.048Z,7.3
2022-08-20T11:27:29.054Z,7.1
2022-08-20T11:29:32.181Z,6.5
2022-08-20T11:31:29.074Z,6.1
2022-08-20T11:33:29.059Z,7.2
2022-08-20T11:35:48.814Z,6.9
2022-08-20T11:37:29.068Z,7.7
2022-08-20T11:39:29.070Z,6
2022-08-20T11:41:29.085Z,6.7
2022-08-20T11:43:29.087Z,7.5
2022-08-20T11:45:29.082Z,7
2022-08-20T11:47:29.095Z,6.7
2022-08-20T11:49:29.088Z,7.5
2022-08-20T11:51:29.119Z,7.4
2022-08-20T11:53:29.113Z,8.1
2022-08-20T11:55:30.259Z,7.8
2022-08-20T11:57:29.186Z,10
2022-08-20T11:59:29.181Z,6.8
2022-08-20T12:01:29.189Z,7.4
2022-08-20T12:03:29.183Z,8.1
2022-08-20T12:05:29.191Z,8.9
2022-08-20T12:07:29.195Z,8.9
2022-08-20T12:09:29.194Z,10.2
2022-08-20T12:11:29.201Z,10.7
2022-08-20T12:13:31.078Z,9.6
2022-08-20T12:15:29.201Z,7.8
2022-08-20T12:17:29.213Z,7.9
2022-08-20T12:19:29.210Z,8.6
2022-08-20T12:21:32.317Z,8.3
2022-08-20T12:23:29.214Z,8.6
2022-08-20T12:25:29.216Z,9.3
2022-08-20T12:27:29.220Z,7.5
2022-08-20T12:29:29.232Z,8.4
2022-08-20T12:31:29.239Z,9.2
2022-08-20T12:33:29.240Z,10.7
2022-08-20T12:35:29.233Z,11
2022-08-20T12:37:29.236Z,10.4
2022-08-20T12:39:29.246Z,10.7
2022-08-20T12:41:29.240Z,9.8
2022-08-20T12:43:29.243Z,9.7
2022-08-20T12:45:29.260Z,11.4
2022-08-20T12:47:29.261Z,9.2
2022-08-20T12:49:29.254Z,8.1
2022-08-20T12:51:29.267Z,6.5
2022-08-20T12:53:29.261Z,4.5
2022-08-20T12:55:29.273Z,2.4
2022-08-20T12:57:29.271Z,3.2
2022-08-20T12:59:29.271Z,2.2
2022-08-20T13:01:29.422Z,2.6
2022-08-20T13:03:29.436Z,1.9
2022-08-20T13:05:29.288Z,2.3
2022-08-20T13:07:29.288Z,1.7
2022-08-20T13:09:29.285Z,1.7
2022-08-20T13:11:29.335Z,1.9
2022-08-20T13:13:29.292Z,2.9
2022-08-20T13:15:29.298Z,2.7
2022-08-20T13:17:32.779Z,1.5
2022-08-20T13:19:29.298Z,2.7
2022-08-20T13:21:29.306Z,2
2022-08-20T13:23:29.302Z,1.3
2022-08-20T13:25:29.308Z,1.6
2022-08-20T13:27:29.320Z,1.2
2022-08-20T13:29:29.323Z,1.5
2022-08-20T13:31:29.335Z,1.4
2022-08-20T13:33:29.319Z,1.7
2022-08-20T13:35:29.325Z,1.4
2022-08-20T13:37:29.329Z,1.3
2022-08-20T13:39:29.342Z,1.8
2022-08-20T13:41:29.344Z,1.5
2022-08-20T13:43:29.339Z,1
2022-08-20T13:45:29.348Z,1.2
2022-08-20T13:47:29.348Z,1.4
2022-08-20T13:49:29.349Z,1.3
2022-08-20T13:51:30.571Z,2.5
2022-08-20T13:53:29.367Z,1.4
2022-08-20T13:55:29.364Z,2.1
2022-08-20T13:57:29.370Z,1.1
2022-08-20T13:59:29.378Z,1.4
2022-08-20T14:01:29.479Z,2.4
2022-08-20T14:03:29.379Z,2.2
2022-08-20T14:05:29.393Z,1.3
2022-08-20T14:07:32.420Z,1.3
2022-08-20T14:09:29.396Z,0.8
2022-08-20T14:11:29.397Z,1.8
2022-08-20T14:13:29.407Z,1.8
2022-08-20T14:15:29.414Z,1.7
2022-08-20T14:17:29.421Z,1.1
2022-08-20T14:19:29.427Z,1.1
2022-08-20T14:21:29.426Z,1.1
2022-08-20T14:23:29.432Z,1.3
2022-08-20T14:25:29.440Z,1
2022-08-20T14:27:31.326Z,1.4
2022-08-20T14:29:29.445Z,1
2022-08-20T14:31:29.458Z,1.5
2022-08-20T14:33:29.458Z,1.1
2022-08-20T14:35:29.455Z,1.1
2022-08-20T14:37:29.463Z,1
2022-08-20T14:39:29.460Z,1.2
2022-08-20T14:41:29.471Z,1.8
2022-08-20T14:43:29.483Z,1.7
2022-08-20T14:45:29.476Z,1.1
2022-08-20T14:47:29.488Z,2
2022-08-20T14:49:29.490Z,1.4
2022-08-20T14:51:29.493Z,2.2
2022-08-20T14:53:29.506Z,1.6
2022-08-20T14:55:29.507Z,1.7
2022-08-20T14:57:29.514Z,1.3
2022-08-20T14:59:29.524Z,1.3
2022-08-20T15:01:29.588Z,2.3
2022-08-20T15:03:29.534Z,2.6
2022-08-20T15:05:29.792Z,2.3
2022-08-20T15:07:29.575Z,1.9
2022-08-20T15:09:29.559Z,2.4
2022-08-20T15:11:33.650Z,1.8
2022-08-20T15:13:29.565Z,1.5
2022-08-20T15:15:29.574Z,1.9
2022-08-20T15:17:29.580Z,1.7
2022-08-20T15:19:29.591Z,1.6
2022-08-20T15:21:29.588Z,2.2
2022-08-20T15:23:29.595Z,1.5
2022-08-20T15:25:36.329Z,2.1
2022-08-20T15:27:29.604Z,2
2022-08-20T15:29:29.604Z,2.2
2022-08-20T15:31:29.639Z,2
2022-08-20T15:33:29.618Z,2
2022-08-20T15:35:29.628Z,2.2
2022-08-20T15:37:29.624Z,1.9
2022-08-20T15:39:29.631Z,2.7
2022-08-20T15:41:29.634Z,2.5
2022-08-20T15:43:29.631Z,3.2
2022-08-20T15:45:29.638Z,3.4
2022-08-20T15:47:29.643Z,2.4
2022-08-20T15:49:29.647Z,3.4
2022-08-20T15:51:29.651Z,2.7
2022-08-20T15:53:29.655Z,3.1
2022-08-20T15:55:29.651Z,3.7
2022-08-20T15:57:29.654Z,2.8
2022-08-20T15:59:29.660Z,3.7
2022-08-20T16:01:29.970Z,2.7
2022-08-20T16:03:29.666Z,3.5
2022-08-20T16:05:29.677Z,5.5
2022-08-20T16:07:29.677Z,5
2022-08-20T16:09:29.677Z,3.2
2022-08-20T16:11:29.676Z,3.1
2022-08-20T16:13:29.683Z,3.3
2022-08-20T16:15:29.686Z,3.4
2022-08-20T16:17:29.692Z,2.8
2022-08-20T16:19:29.692Z,3.8
2022-08-20T16:21:29.693Z,3.1
2022-08-20T16:23:29.693Z,3.1
2022-08-20T16:25:29.697Z,3.6
2022-08-20T16:27:29.691Z,3.6
2022-08-20T16:29:29.698Z,3.6
2022-08-20T16:31:29.710Z,4.9
2022-08-20T16:33:29.706Z,3.1
2022-08-20T16:35:30.451Z,2.9
2022-08-20T16:37:29.701Z,3.7
2022-08-20T16:39:29.706Z,3.2
2022-08-20T16:41:29.707Z,2.9
2022-08-20T16:43:29.717Z,3.7
2022-08-20T16:45:29.713Z,4.2
2022-08-20T16:47:29.714Z,3.7
2022-08-20T16:49:29.714Z,3.9
2022-08-20T16:51:29.712Z,3.3
2022-08-20T16:53:29.720Z,3.5
2022-08-20T16:55:29.728Z,3
2022-08-20T16:57:29.729Z,4.3
2022-08-20T16:59:29.734Z,4
2022-08-20T17:01:29.809Z,3.8
2022-08-20T17:03:31.783Z,3.5
2022-08-20T17:05:29.746Z,2.9
2022-08-20T17:07:29.904Z,3.7
2022-08-20T17:09:29.750Z,4.4
2022-08-20T17:11:29.753Z,3.7
2022-08-20T17:13:29.759Z,3.6
2022-08-20T17:15:29.761Z,4.4
2022-08-20T17:17:29.762Z,3.7
2022-08-20T17:19:29.769Z,3.2
2022-08-20T17:21:29.780Z,3.8
2022-08-20T17:23:29.786Z,3.5
2022-08-20T17:25:29.788Z,4.1
2022-08-20T17:27:29.798Z,3.7
2022-08-20T17:29:29.802Z,4.4
2022-08-20T17:31:31.601Z,3.5
2022-08-20T17:33:29.806Z,3.4
2022-08-20T17:35:29.816Z,3.3
2022-08-20T17:37:29.817Z,4.3
2022-08-20T17:39:29.823Z,3.7
2022-08-20T17:41:29.830Z,3.8
2022-08-20T17:43:29.825Z,4.5
2022-08-20T17:45:29.838Z,4.3
2022-08-20T17:47:29.835Z,3.7
2022-08-20T17:49:29.848Z,3.5
2022-08-20T17:51:29.853Z,3.8
2022-08-20T17:53:29.859Z,3.8
2022-08-20T17:55:29.859Z,3.7
2022-08-20T17:57:29.867Z,3.7
2022-08-20T17:59:33.614Z,4
2022-08-20T18:01:29.901Z,3.5
2022-08-20T18:03:29.873Z,3.5
2022-08-20T18:05:29.883Z,4.4
2022-08-20T18:07:29.891Z,5.8
2022-08-20T18:09:29.890Z,3.9
2022-08-20T18:11:29.893Z,3.5
2022-08-20T18:13:29.892Z,4.3
2022-08-20T18:15:29.905Z,4.2
2022-08-20T18:17:29.903Z,4.8
2022-08-20T18:19:29.910Z,4.7
2022-08-20T18:21:29.922Z,3.7
2022-08-20T18:23:29.922Z,3.9
2022-08-20T18:25:29.930Z,4.6
2022-08-20T18:27:29.934Z,4
2022-08-20T18:29:29.939Z,3.8
2022-08-20T18:31:29.949Z,5.3
2022-08-20T18:33:29.945Z,4.9
2022-08-20T18:35:29.950Z,4.2
2022-08-20T18:37:29.954Z,5.9
2022-08-20T18:39:29.966Z,5.9
2022-08-20T18:41:29.972Z,4.9
2022-08-20T18:43:29.978Z,5.1
2022-08-20T18:45:29.977Z,4.2
2022-08-20T18:47:29.976Z,4.6
2022-08-20T18:49:29.983Z,4.4
2022-08-20T18:51:29.989Z,4.5
2022-08-20T18:53:33.594Z,4.8
2022-08-20T18:55:29.999Z,4.7
2022-08-20T18:57:30.552Z,4.7
2022-08-20T18:59:30.007Z,3.9
2022-08-20T19:01:30.067Z,4.6
2022-08-20T19:03:30.015Z,5.2
2022-08-20T19:05:30.017Z,5.5
2022-08-20T19:07:45.738Z,4.6
2022-08-20T19:09:30.026Z,4.4
2022-08-20T19:11:30.028Z,4.9
2022-08-20T19:13:30.031Z,5.3
2022-08-20T19:15:30.046Z,5.1
2022-08-20T19:17:33.109Z,4.5
2022-08-20T19:19:32.934Z,5.3
2022-08-20T19:21:30.049Z,5.9
2022-08-20T19:23:30.060Z,4.4
2022-08-20T19:25:30.068Z,5.5
2022-08-20T19:27:30.066Z,6.5
2022-08-20T19:29:30.077Z,4.8
2022-08-20T19:31:30.091Z,5.3
2022-08-20T19:33:30.082Z,5.3
2022-08-20T19:35:30.082Z,4.7
2022-08-20T19:37:35.723Z,5.1
2022-08-20T19:39:30.082Z,5.3
2022-08-20T19:41:31.204Z,5.5
2022-08-20T19:43:30.091Z,4.9
2022-08-20T19:45:30.104Z,5.8
2022-08-20T19:47:30.103Z,5.2
2022-08-20T19:49:30.103Z,5.4
2022-08-20T19:51:30.107Z,7
2022-08-20T19:53:30.864Z,8.1
2022-08-20T19:55:30.111Z,6.5
2022-08-20T19:57:30.118Z,5.3
2022-08-20T19:59:30.119Z,6.7
2022-08-20T20:01:30.210Z,7.2
2022-08-20T20:03:30.128Z,6.9
2022-08-20T20:05:30.127Z,5.6
2022-08-20T20:07:30.127Z,5.5
2022-08-20T20:09:30.132Z,5.2
2022-08-20T20:11:30.136Z,5
2022-08-20T20:13:30.143Z,6.4
2022-08-20T20:15:30.142Z,6.6
2022-08-20T20:17:30.160Z,7.6
2022-08-20T20:19:30.168Z,6.9
2022-08-20T20:21:30.148Z,7.2
2022-08-20T20:23:38.625Z,6
2022-08-20T20:25:30.152Z,5.6
2022-08-20T20:27:30.154Z,5.8
2022-08-20T20:29:30.154Z,5.6
2022-08-20T20:31:30.162Z,6.9
2022-08-20T20:33:30.161Z,5.9
2022-08-20T20:35:30.164Z,5.9
2022-08-20T20:37:46.668Z,6.1
2022-08-20T20:39:30.168Z,6.3
2022-08-20T20:41:30.171Z,5.6
2022-08-20T20:43:30.174Z,6.4
2022-08-20T20:45:30.178Z,6.2
2022-08-20T20:47:30.174Z,4.3
2022-08-20T20:49:30.179Z,5.6
2022-08-20T20:51:30.179Z,5.2
2022-08-20T20:53:32.476Z,5.1
2022-08-20T20:55:30.207Z,6.3
2022-08-20T20:57:34.255Z,4.6
2022-08-20T20:59:30.193Z,6.3
2022-08-20T21:01:45.544Z,5.1
2022-08-20T21:03:30.190Z,4.7
2022-08-20T21:05:30.191Z,4.7
2022-08-20T21:07:30.192Z,5.8
2022-08-20T21:09:30.192Z,5.9
2022-08-20T21:11:30.194Z,6.1
2022-08-20T21:13:30.195Z,5.8
2022-08-20T21:15:30.199Z,6.5
2022-08-20T21:17:30.210Z,5.8
2022-08-20T21:19:30.214Z,6.6
2022-08-20T21:21:30.219Z,4.6
2022-08-20T21:23:39.569Z,5.9
2022-08-20T21:25:30.232Z,5.3
2022-08-20T21:27:30.242Z,6.7
2022-08-20T21:29:32.429Z,6.1
2022-08-20T21:31:30.274Z,5.2
2022-08-20T21:33:30.278Z,4
2022-08-20T21:35:30.288Z,6.1
2022-08-20T21:37:30.302Z,4.2
2022-08-20T21:39:30.314Z,6.3
2022-08-20T21:41:30.440Z,5.3
2022-08-20T21:43:32.703Z,6
2022-08-20T21:45:30.352Z,5.2
2022-08-20T21:47:30.366Z,4.9
2022-08-20T21:49:30.371Z,4.8
2022-08-20T21:51:30.385Z,5.1
2022-08-20T21:53:30.386Z,5
2022-08-20T21:55:30.395Z,5.2
2022-08-20T21:57:30.404Z,5.4
2022-08-20T21:59:30.409Z,5.6
2022-08-20T22:01:30.474Z,3.9
2022-08-20T22:03:30.425Z,4.8
2022-08-20T22:05:30.435Z,5.6
2022-08-20T22:07:30.436Z,5.6
2022-08-20T22:09:30.476Z,4.9
2022-08-20T22:11:30.450Z,5.9
2022-08-20T22:13:30.452Z,6
2022-08-20T22:15:30.455Z,5.9
2022-08-20T22:17:30.457Z,5
2022-08-20T22:19:30.466Z,6.2
2022-08-20T22:21:31.367Z,4.7
2022-08-20T22:23:30.478Z,5.8
2022-08-20T22:25:30.487Z,5
2022-08-20T22:27:30.501Z,4.2
2022-08-20T22:29:30.505Z,4.9
2022-08-20T22:31:30.533Z,4.5
2022-08-20T22:33:30.517Z,4.9
2022-08-20T22:35:30.521Z,6.1
2022-08-20T22:37:30.531Z,5.5
2022-08-20T22:39:30.539Z,4.9
2022-08-20T22:41:30.546Z,6.1
2022-08-20T22:43:30.557Z,4.9
2022-08-20T22:45:30.569Z,4.2
2022-08-20T22:47:30.570Z,6.1
2022-08-20T22:49:30.579Z,5.6
2022-08-20T22:51:30.585Z,4.8
2022-08-20T22:53:30.594Z,5.4
2022-08-20T22:55:30.611Z,4.6
2022-08-20T22:57:30.615Z,5
2022-08-20T22:59:30.615Z,5.5
2022-08-20T23:01:30.661Z,7
2022-08-20T23:03:39.958Z,6.2
2022-08-20T23:05:30.638Z,4.6
2022-08-20T23:07:30.633Z,5.3
2022-08-20T23:09:30.638Z,5
2022-08-20T23:11:30.647Z,4.6
2022-08-20T23:13:30.656Z,5.5
2022-08-20T23:15:30.661Z,5.1
2022-08-20T23:17:30.668Z,6.4
2022-08-20T23:19:30.676Z,4.7
2022-08-20T23:21:30.694Z,6.5
2022-08-20T23:23:30.712Z,5.2
2022-08-20T23:25:30.710Z,4.5
2022-08-20T23:27:30.714Z,4.4
2022-08-20T23:29:30.724Z,5.3
2022-08-20T23:31:30.739Z,6.4
2022-08-20T23:33:30.749Z,5.5
2022-08-20T23:35:31.971Z,5.4
2022-08-20T23:37:30.766Z,6.9
2022-08-20T23:39:30.774Z,4.8
2022-08-20T23:41:30.782Z,4.3
2022-08-20T23:43:30.791Z,4.9
2022-08-20T23:45:30.795Z,4.7
2022-08-20T23:47:30.808Z,5.7
2022-08-20T23:49:30.813Z,6.1
2022-08-20T23:51:30.823Z,6.2
2022-08-20T23:53:30.828Z,5.3
2022-08-20T23:55:30.848Z,5.3
2022-08-20T23:57:30.845Z,5.5
2022-08-20T23:59:30.863Z,4.6
